McVille, ND

10:24 PM CDT on July 22, 2014 (GMT -0500)
Devils Lake Municipal (KDVL) Elev 1453 ft | 48.11 °N, 98.91 °W | Change Station

Current weather conditions updated 9 minutes ago

Clear
Clear
68 °F
Feels Like 68 °F
N
7
Wind Variable Wind from East

Tomorrow is forecast to be nearly the same temperature as today.

Today
High -- | Low -- °F
--% Chance of Precip.
Yesterday
High -- | Low -- °F
Precip. -- in
5:57 AM 9:20 PM
Waning Crescent, 13% visible
Pressure 30.23 in
Visibility 9.0 miles
Clouds Clear
Dew Point 59 °F
Humidity 73%
Rainfall 0.00 in
Snow Depth Not available.
UV 0 out of 12
Pollen 4.00 out of 12
Air Quality Not available.
Flu Activity Not available.
METAR KDVL 230315Z AUTO 10006KT 9SM CLR 20/15 A3023 RMK AO1

More Conditions Fewer Conditions

Pressure 30.23 in
Visibility 9.0 miles
Clouds Clear
Dew Point 59 °F
Humidity 73%
Rainfall 0.00 in
Snow Depth Not available.
UV 0 out of 12
Pollen 4.00 out of 12
Air Quality Not available.
Flu Activity Not available.
METAR KDVL 230315Z AUTO 10006KT 9SM CLR 20/15 A3023 RMK AO1

More Conditions Fewer Conditions

10-Day Weather Forecast

Almanac

Astronomy

Jul. 22, 2014 Rise Set
Actual Time 5:57 AM CDT 9:20 PM CDT
Civil Twilight 5:19 AM CDT 9:57 PM CDT
Nautical Twilight 4:29 AM CDT 10:47 PM CDT
Astronomical Twilight 3:24 AM CDT 11:51 PM CDT
Moon 2:34 AM CDT (7/22) 5:57 PM CDT (7/22)
Length of Visible Light 16h 38m
Length of Day
15h 22m
Tomorrow will be 2m 17s shorter.
Waning Crescent, 13% of the Moon is Illuminated
Today
Waning Crescent
Jul 26
New
Aug 3
First Quarter
Aug 10
Full
Aug 17
Last Quarter

Today's Extremes

State Highs State Lows

Community

WunderPhotos

Upload Photos

1,736,481 photos uploaded!

Nearby

Snow Depth

Station Depth Elevation
No new snow has been reported.

Earthquake Activity

City Distance Mag. Time & Date
No recent earthquake activity has been reported nearby.
Minimum magnitude displayed is 2.5.

Coastal Water Temperatures

Place Temperature
No Stations Reporting

Nearby Weather Stations

There are no personal weather stations in this area.